createdAt,value
2018-08-19T00:02:11.961Z,22.60
2018-08-19T00:07:07.058Z,22.60
2018-08-19T00:09:34.923Z,22.60
2018-08-19T00:12:02.777Z,22.50
2018-08-19T00:17:00.957Z,22.50
2018-08-19T00:21:56.452Z,22.50
2018-08-19T00:24:24.272Z,22.50
2018-08-19T00:34:26.435Z,22.40
2018-08-19T00:36:53.929Z,22.40
2018-08-19T00:39:21.536Z,22.50
2018-08-19T00:41:49.060Z,22.40
2018-08-19T00:44:16.639Z,22.40
2018-08-19T00:46:44.173Z,22.40
2018-08-19T00:49:11.704Z,22.40
2018-08-19T00:51:43.775Z,22.40
2018-08-19T00:54:12.242Z,22.30
2018-08-19T00:56:39.772Z,22.10
2018-08-19T00:59:08.932Z,22.10
2018-08-19T01:01:36.584Z,22.00
2018-08-19T01:04:06.932Z,21.80
2018-08-19T01:06:40.173Z,22.00
2018-08-19T01:11:36.060Z,22.10
2018-08-19T01:14:07.457Z,22.10
2018-08-19T01:19:02.720Z,22.10
2018-08-19T01:21:31.576Z,22.00
2018-08-19T01:24:00.220Z,21.90
2018-08-19T01:26:31.933Z,21.80
2018-08-19T01:31:27.010Z,21.70
2018-08-19T01:33:54.598Z,21.80
2018-08-19T01:36:23.275Z,21.90
2018-08-19T01:38:50.917Z,21.90
2018-08-19T01:41:18.356Z,21.80
2018-08-19T01:44:06.303Z,21.80
2018-08-19T01:49:07.145Z,21.40
2018-08-19T01:51:36.790Z,21.40
2018-08-19T01:54:10.090Z,21.50
2018-08-19T01:56:37.961Z,21.60
2018-08-19T01:59:05.874Z,21.60
2018-08-19T02:01:45.679Z,21.60
2018-08-19T02:04:13.494Z,21.60
2018-08-19T02:06:41.943Z,21.70
2018-08-19T02:11:39.250Z,21.60
2018-08-19T02:14:06.838Z,21.70
2018-08-19T02:16:34.395Z,21.60
2018-08-19T02:23:56.693Z,21.60
2018-08-19T02:26:28.589Z,21.60
2018-08-19T02:28:56.182Z,21.60
2018-08-19T02:31:23.976Z,21.60
2018-08-19T02:33:51.652Z,21.60
2018-08-19T02:36:19.139Z,21.60
2018-08-19T02:38:46.665Z,21.60
2018-08-19T02:41:14.270Z,21.60
2018-08-19T02:43:59.561Z,21.60
2018-08-19T02:46:27.431Z,21.60
2018-08-19T02:48:54.952Z,21.50
2018-08-19T02:51:22.511Z,21.50
2018-08-19T02:53:50.937Z,21.60
2018-08-19T02:58:47.010Z,21.50
2018-08-19T03:01:15.489Z,21.50
2018-08-19T03:06:10.700Z,21.50
2018-08-19T03:08:44.108Z,21.50
2018-08-19T03:11:12.503Z,21.50
2018-08-19T03:13:40.036Z,21.60
2018-08-19T03:18:34.932Z,21.50
2018-08-19T03:21:02.550Z,21.50
2018-08-19T03:23:29.983Z,21.50
2018-08-19T03:25:58.621Z,21.50
2018-08-19T03:28:26.137Z,20.40
2018-08-19T03:30:59.152Z,21.60
2018-08-19T03:33:26.662Z,21.60
2018-08-19T03:35:54.105Z,21.60
2018-08-19T03:38:24.778Z,21.50
2018-08-19T03:40:53.922Z,21.60
2018-08-19T03:43:21.473Z,21.50
2018-08-19T03:45:48.950Z,21.50
2018-08-19T03:48:16.500Z,21.40
2018-08-19T03:55:40.181Z,21.10
2018-08-19T03:58:08.971Z,21.10
2018-08-19T04:00:40.164Z,21.00
2018-08-19T04:03:20.616Z,21.00
2018-08-19T04:07:14.616Z,21.00
2018-08-19T04:12:11.743Z,21.00
2018-08-19T04:17:07.480Z,20.90
2018-08-19T04:19:35.016Z,20.90
2018-08-19T04:22:03.953Z,20.90
2018-08-19T04:24:32.012Z,20.90
2018-08-19T04:27:04.530Z,20.90
2018-08-19T04:32:00.362Z,20.90
2018-08-19T04:36:55.608Z,20.90
2018-08-19T04:39:23.088Z,20.90
2018-08-19T04:44:18.048Z,20.90
2018-08-19T04:46:45.618Z,20.80
2018-08-19T04:49:14.343Z,20.70
2018-08-19T04:51:41.844Z,20.70
2018-08-19T04:56:37.689Z,20.80
2018-08-19T04:59:05.753Z,20.80
2018-08-19T05:01:33.272Z,20.80
2018-08-19T05:04:00.780Z,20.90
2018-08-19T05:06:28.295Z,21.00
2018-08-19T05:08:57.453Z,21.00
2018-08-19T05:13:52.552Z,20.90
2018-08-19T05:16:20.052Z,21.00
2018-08-19T05:18:53.063Z,21.00
2018-08-19T05:21:21.205Z,20.90
2018-08-19T05:23:48.713Z,20.90
2018-08-19T05:26:16.237Z,20.90
2018-08-19T05:29:14.496Z,20.90
2018-08-19T05:31:48.225Z,21.00
2018-08-19T05:34:21.225Z,21.00
2018-08-19T05:36:50.251Z,20.90
2018-08-19T05:39:17.830Z,20.90
2018-08-19T05:44:22.999Z,20.80
2018-08-19T05:46:50.577Z,20.80
2018-08-19T05:49:18.376Z,20.80
2018-08-19T05:51:45.963Z,20.70
2018-08-19T05:56:40.994Z,20.90
2018-08-19T05:59:08.525Z,21.00
2018-08-19T06:01:36.193Z,21.20
2018-08-19T06:04:03.755Z,21.30
2018-08-19T06:06:31.382Z,21.40
2018-08-19T06:08:58.919Z,21.60
2018-08-19T06:11:26.540Z,21.70
2018-08-19T06:13:54.228Z,21.70
2018-08-19T06:16:21.813Z,21.80
2018-08-19T06:18:49.409Z,21.90
2018-08-19T06:21:16.975Z,22.00
2018-08-19T06:23:44.513Z,22.10
2018-08-19T06:26:14.558Z,22.30
2018-08-19T06:28:42.133Z,22.30
2018-08-19T06:31:09.821Z,22.50
2018-08-19T06:33:37.284Z,22.60
2018-08-19T06:36:04.843Z,22.70
2018-08-19T06:38:32.401Z,22.80
2018-08-19T06:43:27.385Z,23.10
2018-08-19T06:45:54.916Z,23.10
2018-08-19T06:48:22.527Z,23.20
2018-08-19T06:50:50.165Z,23.20
2018-08-19T06:53:23.191Z,23.40
2018-08-19T07:00:45.762Z,23.80
2018-08-19T07:03:13.366Z,24.10
2018-08-19T07:08:08.363Z,24.50
2018-08-19T07:10:40.294Z,24.50
2018-08-19T07:13:10.205Z,24.50
2018-08-19T07:15:38.930Z,24.80
2018-08-19T07:20:35.517Z,25.10
2018-08-19T07:23:03.118Z,25.00
2018-08-19T07:25:30.699Z,25.50
2018-08-19T07:27:58.366Z,25.60
2018-08-19T07:30:25.952Z,25.70
2018-08-19T07:32:53.610Z,25.70
2018-08-19T07:35:21.130Z,25.80
2018-08-19T07:40:17.120Z,26.40
2018-08-19T07:42:44.625Z,26.80
2018-08-19T07:45:12.276Z,26.60
2018-08-19T07:47:39.916Z,26.50
2018-08-19T07:50:08.383Z,26.70
2018-08-19T07:52:35.932Z,26.80
2018-08-19T07:55:03.977Z,27.00
2018-08-19T07:57:31.624Z,27.30
2018-08-19T08:02:30.472Z,27.40
2018-08-19T08:04:58.117Z,27.50
2018-08-19T08:07:28.596Z,27.60
2018-08-19T08:12:28.732Z,27.60
2018-08-19T08:14:56.397Z,27.80
2018-08-19T08:17:25.195Z,28.10
2018-08-19T08:20:04.271Z,28.20
2018-08-19T08:22:32.872Z,28.00
2018-08-19T08:25:00.604Z,28.10
2018-08-19T08:27:28.965Z,28.40
2018-08-19T08:29:56.532Z,28.50
2018-08-19T08:32:24.219Z,28.70
2018-08-19T08:34:52.072Z,28.80
2018-08-19T08:37:19.727Z,28.80
2018-08-19T08:39:50.170Z,29.00
2018-08-19T08:42:17.684Z,29.20
2018-08-19T08:44:45.327Z,29.10
2018-08-19T08:47:12.936Z,29.30
2018-08-19T08:49:47.001Z,29.50
2018-08-19T08:52:21.057Z,29.60
2018-08-19T08:54:51.526Z,29.80
2018-08-19T08:59:47.786Z,29.90
2018-08-19T09:02:15.327Z,30.00
2018-08-19T09:04:42.881Z,29.60
2018-08-19T09:09:40.001Z,29.80
2018-08-19T09:14:35.063Z,30.30
2018-08-19T09:17:02.660Z,30.30
2018-08-19T09:19:30.273Z,30.50
2018-08-19T09:21:57.910Z,30.30
2018-08-19T09:24:25.402Z,30.50
2018-08-19T09:26:53.197Z,28.30
2018-08-19T09:29:20.685Z,30.70
2018-08-19T09:31:48.256Z,30.60
2018-08-19T09:34:16.428Z,30.70
2018-08-19T09:36:44.021Z,30.70
2018-08-19T09:39:11.786Z,30.80
2018-08-19T09:41:39.305Z,30.80
2018-08-19T09:44:06.963Z,30.90
2018-08-19T09:46:34.515Z,30.90
2018-08-19T09:49:02.095Z,31.00
2018-08-19T09:51:29.656Z,31.20
2018-08-19T09:53:57.191Z,31.20
2018-08-19T09:56:30.305Z,31.20
2018-08-19T09:59:03.494Z,31.50
2018-08-19T10:01:36.867Z,31.60
2018-08-19T10:04:38.923Z,31.80
2018-08-19T10:09:39.166Z,31.80
2018-08-19T10:12:06.956Z,31.70
2018-08-19T10:14:34.481Z,31.70
2018-08-19T10:17:02.056Z,31.70
2018-08-19T10:19:29.654Z,31.80
2018-08-19T10:21:57.355Z,32.00
2018-08-19T10:24:28.555Z,32.20
2018-08-19T10:26:56.709Z,32.30
2018-08-19T10:29:24.442Z,32.40
2018-08-19T10:31:54.320Z,32.00
2018-08-19T10:34:25.021Z,31.90
2018-08-19T10:36:52.717Z,32.10
2018-08-19T10:39:20.240Z,32.20
2018-08-19T10:41:47.892Z,32.20
2018-08-19T10:44:15.551Z,32.20
2018-08-19T10:46:43.392Z,32.20
2018-08-19T10:49:11.336Z,31.90
2018-08-19T10:51:45.600Z,32.00
2018-08-19T10:54:13.951Z,32.30
2018-08-19T10:56:41.548Z,32.60
2018-08-19T10:59:10.471Z,32.60
2018-08-19T11:01:38.025Z,32.50
2018-08-19T11:04:05.606Z,32.70
2018-08-19T11:11:32.330Z,32.60
2018-08-19T11:13:59.928Z,32.60
2018-08-19T11:18:54.972Z,32.60
2018-08-19T11:21:29.016Z,32.60
2018-08-19T11:23:57.512Z,32.60
2018-08-19T11:26:26.131Z,32.60
2018-08-19T11:28:58.770Z,32.60
2018-08-19T11:31:31.935Z,32.50
2018-08-19T11:34:03.108Z,32.30
2018-08-19T11:36:36.829Z,32.40
2018-08-19T11:39:10.865Z,32.10
2018-08-19T11:41:38.462Z,32.20
2018-08-19T11:44:11.765Z,32.10
2018-08-19T11:46:39.343Z,32.10
2018-08-19T11:49:14.176Z,32.20
2018-08-19T11:51:50.644Z,32.40
2018-08-19T11:54:19.150Z,32.40
2018-08-19T11:56:54.377Z,32.30
2018-08-19T11:59:24.205Z,32.20
2018-08-19T12:04:19.284Z,32.50
2018-08-19T12:09:14.561Z,32.50
2018-08-19T12:11:42.065Z,32.50
2018-08-19T12:14:11.618Z,32.50
2018-08-19T12:16:45.838Z,32.40
2018-08-19T12:19:18.977Z,32.50
2018-08-19T12:21:54.722Z,32.50
2018-08-19T12:26:53.073Z,32.50
2018-08-19T12:29:21.247Z,32.50
2018-08-19T12:31:51.079Z,32.60
2018-08-19T12:34:18.621Z,32.20
2018-08-19T12:39:13.914Z,32.20
2018-08-19T12:41:45.748Z,32.10
2018-08-19T12:44:13.332Z,32.00
2018-08-19T12:46:51.158Z,32.00
2018-08-19T12:49:18.669Z,32.00
2018-08-19T12:51:46.220Z,32.00
2018-08-19T12:54:13.772Z,32.00
2018-08-19T12:56:41.250Z,32.00
2018-08-19T12:59:08.802Z,32.10
2018-08-19T13:01:36.333Z,32.00
2018-08-19T13:06:31.392Z,32.00
2018-08-19T13:08:58.886Z,31.80
2018-08-19T13:11:26.592Z,32.00
2018-08-19T13:16:22.438Z,31.90
2018-08-19T13:18:52.556Z,31.80
2018-08-19T13:21:21.217Z,31.90
2018-08-19T13:26:16.323Z,32.00
2018-08-19T13:28:48.421Z,32.00
2018-08-19T13:31:21.388Z,32.00
2018-08-19T13:36:16.390Z,32.00
2018-08-19T13:38:43.997Z,31.90
2018-08-19T13:41:11.710Z,31.90
2018-08-19T13:43:39.276Z,31.90
2018-08-19T13:46:06.907Z,31.90
2018-08-19T13:48:34.576Z,31.80
2018-08-19T13:51:02.338Z,31.60
2018-08-19T13:53:30.079Z,31.70
2018-08-19T13:55:57.810Z,31.70
2018-08-19T13:58:25.346Z,31.70
2018-08-19T14:00:52.890Z,31.80
2018-08-19T14:03:20.424Z,31.70
2018-08-19T14:08:15.520Z,31.70
2018-08-19T14:10:43.144Z,31.70
2018-08-19T14:13:10.727Z,31.50
2018-08-19T14:15:38.337Z,31.50
2018-08-19T14:18:05.974Z,31.40
2018-08-19T14:20:33.621Z,31.30
2018-08-19T14:23:01.239Z,31.30
2018-08-19T14:25:28.827Z,31.20
2018-08-19T14:27:56.918Z,31.00
2018-08-19T14:30:24.740Z,31.10
2018-08-19T14:32:52.221Z,30.90
2018-08-19T14:35:19.760Z,30.80
2018-08-19T14:37:47.264Z,30.80
2018-08-19T14:40:16.620Z,30.60
2018-08-19T14:42:44.322Z,30.50
2018-08-19T14:45:11.953Z,30.40
2018-08-19T14:47:40.262Z,30.40
2018-08-19T14:50:14.424Z,30.40
2018-08-19T14:52:42.105Z,30.30
2018-08-19T14:55:09.717Z,30.30
2018-08-19T14:57:37.345Z,30.10
2018-08-19T15:00:09.514Z,30.00
2018-08-19T15:02:37.813Z,30.00
2018-08-19T15:05:05.966Z,29.80
2018-08-19T15:07:33.625Z,29.70
2018-08-19T15:10:02.007Z,29.60
2018-08-19T15:14:59.767Z,29.60
2018-08-19T15:17:27.311Z,29.50
2018-08-19T15:22:23.511Z,29.40
2018-08-19T15:24:52.385Z,29.30
2018-08-19T15:27:20.070Z,29.20
2018-08-19T15:29:50.842Z,29.20
2018-08-19T15:32:20.712Z,29.20
2018-08-19T15:34:48.012Z,29.20
2018-08-19T15:37:15.617Z,29.20
2018-08-19T15:39:43.232Z,29.10
2018-08-19T15:42:11.060Z,29.00
2018-08-19T15:44:38.723Z,29.10
2018-08-19T15:47:06.496Z,29.10
2018-08-19T15:49:34.070Z,30.80
2018-08-19T15:52:01.600Z,29.00
2018-08-19T15:54:29.296Z,28.80
2018-08-19T15:56:58.812Z,28.80
2018-08-19T15:59:26.688Z,28.90
2018-08-19T16:01:54.260Z,28.80
2018-08-19T16:04:23.254Z,28.80
2018-08-19T16:06:52.025Z,28.80
2018-08-19T16:09:22.325Z,28.70
2018-08-19T16:11:51.511Z,28.70
2018-08-19T16:14:23.507Z,28.80
2018-08-19T16:16:51.545Z,28.70
2018-08-19T16:19:19.396Z,28.70
2018-08-19T16:24:15.831Z,28.70
2018-08-19T16:26:43.556Z,28.80
2018-08-19T16:29:11.116Z,28.80
2018-08-19T16:31:38.750Z,28.60
2018-08-19T16:36:33.889Z,28.40
2018-08-19T16:39:01.568Z,28.30
2018-08-19T16:43:57.914Z,28.20
2018-08-19T17:03:34.415Z,28.20
2018-08-19T17:06:02.316Z,28.20
2018-08-19T17:08:29.995Z,28.10
2018-08-19T17:10:57.601Z,28.00
2018-08-19T17:13:25.231Z,28.00
2018-08-19T17:15:52.804Z,28.00
2018-08-19T17:18:20.443Z,27.90
2018-08-19T17:20:48.869Z,27.90
2018-08-19T17:23:18.876Z,27.80
2018-08-19T17:25:46.853Z,27.80
2018-08-19T17:28:19.041Z,27.80
2018-08-19T17:30:49.848Z,27.70
2018-08-19T17:33:21.723Z,27.70
2018-08-19T17:40:47.897Z,27.60
2018-08-19T17:48:13.564Z,27.50
2018-08-19T17:50:42.353Z,27.50
2018-08-19T17:53:09.926Z,27.50
2018-08-19T17:55:37.531Z,27.50
2018-08-19T17:58:05.660Z,27.50
2018-08-19T18:00:33.315Z,27.50
2018-08-19T18:03:00.868Z,27.50
2018-08-19T18:05:28.506Z,27.40
2018-08-19T18:07:56.207Z,27.30
2018-08-19T18:10:23.817Z,27.40
2018-08-19T18:12:51.951Z,27.40
2018-08-19T18:15:19.723Z,27.40
2018-08-19T18:20:26.962Z,27.30
2018-08-19T18:22:55.769Z,27.30
2018-08-19T18:25:23.749Z,27.20
2018-08-19T18:27:51.396Z,27.20
2018-08-19T18:30:21.864Z,27.20
2018-08-19T18:32:50.062Z,27.20
2018-08-19T18:35:17.981Z,27.20
2018-08-19T18:37:45.776Z,27.10
2018-08-19T18:40:44.487Z,27.10
2018-08-19T18:43:12.113Z,27.10
2018-08-19T18:45:39.770Z,27.10
2018-08-19T18:48:07.441Z,27.00
2018-08-19T18:50:35.032Z,27.00
2018-08-19T18:53:02.619Z,26.90
2018-08-19T18:55:30.160Z,26.90
2018-08-19T18:57:57.787Z,26.80
2018-08-19T19:00:26.252Z,26.80
2018-08-19T19:05:33.050Z,26.70
2018-08-19T19:08:06.749Z,26.60
2018-08-19T19:10:34.745Z,26.60
2018-08-19T19:13:02.675Z,26.60
2018-08-19T19:15:33.441Z,26.70
2018-08-19T19:20:28.577Z,26.70
2018-08-19T19:23:01.629Z,26.70
2018-08-19T19:25:37.878Z,26.60
2018-08-19T19:28:06.073Z,26.50
2018-08-19T19:30:33.729Z,26.50
2018-08-19T19:33:08.681Z,26.40
2018-08-19T19:35:36.597Z,26.30
2018-08-19T19:38:04.891Z,26.20
2018-08-19T19:40:32.569Z,26.20
2018-08-19T19:43:00.633Z,26.20
2018-08-19T19:45:28.404Z,26.20
2018-08-19T19:47:55.992Z,26.20
2018-08-19T19:50:23.585Z,26.10
2018-08-19T19:52:55.696Z,26.10
2018-08-19T19:55:23.503Z,25.90
2018-08-19T19:57:51.820Z,26.00
2018-08-19T20:00:21.084Z,25.80
2018-08-19T20:02:49.450Z,25.70
2018-08-19T20:05:23.446Z,25.70
2018-08-19T20:07:53.453Z,25.60
2018-08-19T20:10:27.745Z,25.50
2018-08-19T20:12:55.370Z,25.60
2018-08-19T20:15:23.039Z,25.60
2018-08-19T20:17:50.672Z,25.60
2018-08-19T20:20:18.312Z,25.50
2018-08-19T20:22:45.863Z,25.40
2018-08-19T20:25:13.514Z,25.30
2018-08-19T20:27:41.109Z,25.30
2018-08-19T20:32:36.201Z,25.30
2018-08-19T20:35:04.133Z,25.30
2018-08-19T20:37:34.161Z,25.30
2018-08-19T20:40:04.265Z,25.20
2018-08-19T20:44:59.344Z,25.10
2018-08-19T20:47:26.898Z,25.20
2018-08-19T20:49:54.449Z,25.10
2018-08-19T20:52:46.712Z,25.10
2018-08-19T20:55:14.511Z,25.00
2018-08-19T20:57:42.178Z,25.10
2018-08-19T21:00:10.020Z,25.10
2018-08-19T21:02:37.631Z,25.10
2018-08-19T21:05:05.557Z,25.10
2018-08-19T21:12:28.414Z,25.00
2018-08-19T21:14:55.998Z,25.00
2018-08-19T21:17:23.529Z,24.90
2018-08-19T21:19:51.424Z,25.00
2018-08-19T21:22:18.956Z,25.00
2018-08-19T21:24:46.485Z,25.00
2018-08-19T21:27:14.042Z,24.90
2018-08-19T21:29:41.601Z,24.80
2018-08-19T21:32:09.110Z,24.80
2018-08-19T21:37:04.123Z,24.80
2018-08-19T21:39:31.745Z,24.80
2018-08-19T21:41:59.326Z,24.80
2018-08-19T21:44:26.811Z,24.70
2018-08-19T21:49:22.768Z,24.80
2018-08-19T21:56:45.242Z,24.60
2018-08-19T21:59:18.325Z,24.60
2018-08-19T22:01:58.625Z,24.50
2018-08-19T22:04:26.628Z,24.50
2018-08-19T22:06:54.361Z,24.50
2018-08-19T22:09:35.959Z,24.50
2018-08-19T22:12:04.799Z,24.50
2018-08-19T22:14:33.539Z,24.40
2018-08-19T22:17:08.838Z,24.50
2018-08-19T22:19:36.785Z,24.40
2018-08-19T22:22:04.462Z,24.40
2018-08-19T22:24:32.169Z,24.40
2018-08-19T22:27:05.254Z,24.40
2018-08-19T22:29:32.751Z,24.50
2018-08-19T22:32:00.334Z,24.40
2018-08-19T22:34:27.940Z,24.40
2018-08-19T22:36:55.493Z,24.40
2018-08-19T22:39:23.155Z,24.40
2018-08-19T22:41:51.446Z,24.40
2018-08-19T22:44:19.052Z,24.40
2018-08-19T22:46:46.586Z,24.30
2018-08-19T22:49:14.958Z,24.30
2018-08-19T22:51:42.712Z,24.20
2018-08-19T22:54:10.325Z,24.20
2018-08-19T22:56:37.965Z,24.20
2018-08-19T22:59:05.551Z,24.20
2018-08-19T23:01:38.816Z,24.10
2018-08-19T23:04:06.364Z,24.20
2018-08-19T23:06:34.063Z,24.10
2018-08-19T23:11:35.767Z,24.20
2018-08-19T23:14:15.122Z,24.20
2018-08-19T23:16:42.785Z,24.20
2018-08-19T23:19:10.332Z,24.20
2018-08-19T23:21:38.041Z,24.20
2018-08-19T23:24:05.723Z,24.10
2018-08-19T23:26:33.365Z,24.10
2018-08-19T23:29:00.979Z,24.00
2018-08-19T23:31:28.551Z,24.00
2018-08-19T23:33:56.221Z,24.00
2018-08-19T23:36:23.961Z,23.90
2018-08-19T23:38:51.483Z,24.00
2018-08-19T23:41:19.033Z,23.90
2018-08-19T23:43:46.542Z,23.90
2018-08-19T23:46:14.093Z,23.90
2018-08-19T23:48:41.737Z,23.90
2018-08-19T23:51:11.328Z,23.80
2018-08-19T23:53:38.910Z,23.80
2018-08-19T23:56:06.512Z,23.80
2018-08-19T23:58:34.181Z,23.70
